sensor_id;sensor_type;location;lat;lon;timestamp;P1;durP1;ratioP1;P2;durP2;ratioP2
68025;SDS011;54819;48.030;14.710;2022-11-21T00:01:23;1.50;;;0.90;;
68025;SDS011;54819;48.030;14.710;2022-11-21T00:03:52;4.00;;;1.00;;
68025;SDS011;54819;48.030;14.710;2022-11-21T00:06:19;2.10;;;0.80;;
68025;SDS011;54819;48.030;14.710;2022-11-21T00:08:47;1.10;;;0.70;;
68025;SDS011;54819;48.030;14.710;2022-11-21T00:11:14;1.60;;;0.70;;
68025;SDS011;54819;48.030;14.710;2022-11-21T00:13:42;1.60;;;0.80;;
68025;SDS011;54819;48.030;14.710;2022-11-21T00:16:14;2.80;;;0.90;;
68025;SDS011;54819;48.030;14.710;2022-11-21T00:18:42;2.60;;;0.90;;
68025;SDS011;54819;48.030;14.710;2022-11-21T00:21:12;0.80;;;0.60;;
68025;SDS011;54819;48.030;14.710;2022-11-21T00:23:42;1.30;;;0.70;;
68025;SDS011;54819;48.030;14.710;2022-11-21T00:26:11;2.20;;;0.90;;
68025;SDS011;54819;48.030;14.710;2022-11-21T00:28:40;1.90;;;0.90;;
68025;SDS011;54819;48.030;14.710;2022-11-21T00:31:08;3.10;;;1.00;;
68025;SDS011;54819;48.030;14.710;2022-11-21T00:33:43;2.90;;;0.80;;
68025;SDS011;54819;48.030;14.710;2022-11-21T00:36:09;4.70;;;0.90;;
68025;SDS011;54819;48.030;14.710;2022-11-21T00:38:37;2.90;;;0.90;;
68025;SDS011;54819;48.030;14.710;2022-11-21T00:41:04;1.80;;;0.80;;
68025;SDS011;54819;48.030;14.710;2022-11-21T00:43:31;1.80;;;1.00;;
68025;SDS011;54819;48.030;14.710;2022-11-21T00:45:58;1.40;;;0.80;;
68025;SDS011;54819;48.030;14.710;2022-11-21T00:48:29;1.40;;;0.70;;
68025;SDS011;54819;48.030;14.710;2022-11-21T00:50:57;2.20;;;0.90;;
68025;SDS011;54819;48.030;14.710;2022-11-21T00:53:27;1.30;;;0.70;;
68025;SDS011;54819;48.030;14.710;2022-11-21T00:58:21;1.70;;;0.70;;
68025;SDS011;54819;48.030;14.710;2022-11-21T01:00:48;1.90;;;0.90;;
68025;SDS011;54819;48.030;14.710;2022-11-21T01:03:15;1.10;;;0.70;;
68025;SDS011;54819;48.030;14.710;2022-11-21T01:05:42;1.30;;;0.90;;
68025;SDS011;54819;48.030;14.710;2022-11-21T01:08:09;2.50;;;0.90;;
68025;SDS011;54819;48.030;14.710;2022-11-21T01:10:36;2.10;;;1.00;;
68025;SDS011;54819;48.030;14.710;2022-11-21T01:13:03;1.50;;;0.70;;
68025;SDS011;54819;48.030;14.710;2022-11-21T01:15:30;2.10;;;0.80;;
68025;SDS011;54819;48.030;14.710;2022-11-21T01:17:57;2.10;;;0.70;;
68025;SDS011;54819;48.030;14.710;2022-11-21T01:20:24;1.90;;;0.80;;
68025;SDS011;54819;48.030;14.710;2022-11-21T01:22:51;1.40;;;0.80;;
68025;SDS011;54819;48.030;14.710;2022-11-21T01:25:18;1.20;;;0.80;;
68025;SDS011;54819;48.030;14.710;2022-11-21T01:27:45;0.70;;;0.60;;
68025;SDS011;54819;48.030;14.710;2022-11-21T01:30:12;1.30;;;0.60;;
68025;SDS011;54819;48.030;14.710;2022-11-21T01:32:40;1.50;;;0.70;;
68025;SDS011;54819;48.030;14.710;2022-11-21T01:35:07;2.10;;;0.70;;
68025;SDS011;54819;48.030;14.710;2022-11-21T01:37:34;2.40;;;0.90;;
68025;SDS011;54819;48.030;14.710;2022-11-21T01:40:01;1.10;;;0.80;;
68025;SDS011;54819;48.030;14.710;2022-11-21T01:45:51;1.30;;;0.90;;
68025;SDS011;54819;48.030;14.710;2022-11-21T01:50:55;2.10;;;1.00;;
68025;SDS011;54819;48.030;14.710;2022-11-21T01:53:34;3.00;;;1.20;;
68025;SDS011;54819;48.030;14.710;2022-11-21T01:56:02;2.70;;;1.10;;
68025;SDS011;54819;48.030;14.710;2022-11-21T01:58:30;3.60;;;1.00;;
68025;SDS011;54819;48.030;14.710;2022-11-21T02:01:00;2.60;;;1.20;;
68025;SDS011;54819;48.030;14.710;2022-11-21T02:03:32;2.60;;;1.10;;
68025;SDS011;54819;48.030;14.710;2022-11-21T02:06:02;4.40;;;1.00;;
68025;SDS011;54819;48.030;14.710;2022-11-21T02:08:31;2.10;;;1.00;;
68025;SDS011;54819;48.030;14.710;2022-11-21T02:11:10;3.40;;;1.20;;
68025;SDS011;54819;48.030;14.710;2022-11-21T02:13:41;2.70;;;1.20;;
68025;SDS011;54819;48.030;14.710;2022-11-21T02:16:08;2.80;;;1.30;;
68025;SDS011;54819;48.030;14.710;2022-11-21T02:18:35;2.40;;;1.60;;
68025;SDS011;54819;48.030;14.710;2022-11-21T02:21:21;2.60;;;1.20;;
68025;SDS011;54819;48.030;14.710;2022-11-21T02:24:12;2.00;;;1.10;;
68025;SDS011;54819;48.030;14.710;2022-11-21T02:26:41;3.10;;;1.30;;
68025;SDS011;54819;48.030;14.710;2022-11-21T02:29:08;1.60;;;0.90;;
68025;SDS011;54819;48.030;14.710;2022-11-21T02:31:35;2.20;;;0.90;;
68025;SDS011;54819;48.030;14.710;2022-11-21T02:34:02;4.10;;;1.20;;
68025;SDS011;54819;48.030;14.710;2022-11-21T02:36:43;2.80;;;1.00;;
68025;SDS011;54819;48.030;14.710;2022-11-21T02:39:19;1.70;;;0.80;;
68025;SDS011;54819;48.030;14.710;2022-11-21T02:41:58;1.40;;;0.90;;
68025;SDS011;54819;48.030;14.710;2022-11-21T02:44:51;4.80;;;1.30;;
68025;SDS011;54819;48.030;14.710;2022-11-21T02:47:23;2.10;;;1.10;;
68025;SDS011;54819;48.030;14.710;2022-11-21T02:49:56;2.30;;;1.10;;
68025;SDS011;54819;48.030;14.710;2022-11-21T02:52:28;3.70;;;1.90;;
68025;SDS011;54819;48.030;14.710;2022-11-21T02:54:55;3.30;;;1.80;;
68025;SDS011;54819;48.030;14.710;2022-11-21T02:57:21;2.50;;;1.10;;
68025;SDS011;54819;48.030;14.710;2022-11-21T02:59:48;2.20;;;0.80;;
68025;SDS011;54819;48.030;14.710;2022-11-21T03:02:15;1.20;;;0.70;;
68025;SDS011;54819;48.030;14.710;2022-11-21T03:04:42;1.50;;;0.70;;
68025;SDS011;54819;48.030;14.710;2022-11-21T03:07:09;3.90;;;0.80;;
68025;SDS011;54819;48.030;14.710;2022-11-21T03:09:36;2.20;;;1.10;;
68025;SDS011;54819;48.030;14.710;2022-11-21T03:12:07;2.30;;;0.90;;
68025;SDS011;54819;48.030;14.710;2022-11-21T03:14:36;1.00;;;0.70;;
68025;SDS011;54819;48.030;14.710;2022-11-21T03:17:03;1.10;;;0.70;;
68025;SDS011;54819;48.030;14.710;2022-11-21T03:19:30;1.60;;;0.70;;
68025;SDS011;54819;48.030;14.710;2022-11-21T03:21:57;2.10;;;0.80;;
68025;SDS011;54819;48.030;14.710;2022-11-21T03:24:24;1.40;;;0.70;;
68025;SDS011;54819;48.030;14.710;2022-11-21T03:26:52;3.30;;;2.60;;
68025;SDS011;54819;48.030;14.710;2022-11-21T03:29:18;1.50;;;1.00;;
68025;SDS011;54819;48.030;14.710;2022-11-21T03:31:45;0.80;;;0.50;;
68025;SDS011;54819;48.030;14.710;2022-11-21T03:34:12;1.50;;;0.80;;
68025;SDS011;54819;48.030;14.710;2022-11-21T03:36:39;1.50;;;0.90;;
68025;SDS011;54819;48.030;14.710;2022-11-21T03:39:07;3.50;;;0.90;;
68025;SDS011;54819;48.030;14.710;2022-11-21T03:44:04;1.20;;;0.70;;
68025;SDS011;54819;48.030;14.710;2022-11-21T03:46:37;1.00;;;0.70;;
68025;SDS011;54819;48.030;14.710;2022-11-21T03:49:06;1.20;;;0.90;;
68025;SDS011;54819;48.030;14.710;2022-11-21T03:51:34;1.40;;;0.60;;
68025;SDS011;54819;48.030;14.710;2022-11-21T03:54:02;0.90;;;0.50;;
68025;SDS011;54819;48.030;14.710;2022-11-21T03:58:56;0.90;;;0.60;;
68025;SDS011;54819;48.030;14.710;2022-11-21T04:01:24;1.50;;;0.60;;
68025;SDS011;54819;48.030;14.710;2022-11-21T04:03:52;0.80;;;0.50;;
68025;SDS011;54819;48.030;14.710;2022-11-21T04:06:21;2.00;;;0.50;;
68025;SDS011;54819;48.030;14.710;2022-11-21T04:08:48;1.40;;;0.40;;
68025;SDS011;54819;48.030;14.710;2022-11-21T04:11:16;1.00;;;0.50;;
68025;SDS011;54819;48.030;14.710;2022-11-21T04:13:43;2.00;;;0.70;;
68025;SDS011;54819;48.030;14.710;2022-11-21T04:16:10;1.80;;;0.50;;
68025;SDS011;54819;48.030;14.710;2022-11-21T04:18:37;1.40;;;0.50;;
68025;SDS011;54819;48.030;14.710;2022-11-21T04:21:06;1.20;;;0.50;;
68025;SDS011;54819;48.030;14.710;2022-11-21T04:23:34;0.80;;;0.40;;
68025;SDS011;54819;48.030;14.710;2022-11-21T04:26:01;1.10;;;0.70;;
68025;SDS011;54819;48.030;14.710;2022-11-21T04:28:28;0.90;;;0.40;;
68025;SDS011;54819;48.030;14.710;2022-11-21T04:31:01;1.80;;;0.50;;
68025;SDS011;54819;48.030;14.710;2022-11-21T04:33:37;2.30;;;0.40;;
68025;SDS011;54819;48.030;14.710;2022-11-21T04:36:06;0.40;;;0.40;;
68025;SDS011;54819;48.030;14.710;2022-11-21T04:38:34;0.60;;;0.40;;
68025;SDS011;54819;48.030;14.710;2022-11-21T04:41:02;0.70;;;0.50;;
68025;SDS011;54819;48.030;14.710;2022-11-21T04:43:30;1.50;;;0.60;;
68025;SDS011;54819;48.030;14.710;2022-11-21T04:45:57;3.20;;;0.80;;
68025;SDS011;54819;48.030;14.710;2022-11-21T04:48:23;2.30;;;0.60;;
68025;SDS011;54819;48.030;14.710;2022-11-21T04:50:50;1.20;;;0.60;;
68025;SDS011;54819;48.030;14.710;2022-11-21T04:53:17;0.60;;;0.50;;
68025;SDS011;54819;48.030;14.710;2022-11-21T04:55:44;1.90;;;0.50;;
68025;SDS011;54819;48.030;14.710;2022-11-21T04:58:11;2.90;;;1.00;;
68025;SDS011;54819;48.030;14.710;2022-11-21T05:00:37;1.80;;;0.60;;
68025;SDS011;54819;48.030;14.710;2022-11-21T05:03:05;1.20;;;0.60;;
68025;SDS011;54819;48.030;14.710;2022-11-21T05:05:33;1.40;;;0.60;;
68025;SDS011;54819;48.030;14.710;2022-11-21T05:08:00;0.70;;;0.60;;
68025;SDS011;54819;48.030;14.710;2022-11-21T05:10:26;1.60;;;0.50;;
68025;SDS011;54819;48.030;14.710;2022-11-21T05:12:58;1.20;;;0.60;;
68025;SDS011;54819;48.030;14.710;2022-11-21T05:15:44;2.10;;;0.60;;
68025;SDS011;54819;48.030;14.710;2022-11-21T05:18:11;1.00;;;0.50;;
68025;SDS011;54819;48.030;14.710;2022-11-21T05:20:38;1.00;;;0.60;;
68025;SDS011;54819;48.030;14.710;2022-11-21T05:23:05;1.50;;;0.70;;
68025;SDS011;54819;48.030;14.710;2022-11-21T05:25:32;1.90;;;0.60;;
68025;SDS011;54819;48.030;14.710;2022-11-21T05:27:59;1.50;;;0.50;;
68025;SDS011;54819;48.030;14.710;2022-11-21T05:30:26;2.10;;;0.60;;
68025;SDS011;54819;48.030;14.710;2022-11-21T05:32:52;2.80;;;0.90;;
68025;SDS011;54819;48.030;14.710;2022-11-21T05:35:19;1.50;;;0.60;;
68025;SDS011;54819;48.030;14.710;2022-11-21T05:37:46;1.80;;;0.50;;
68025;SDS011;54819;48.030;14.710;2022-11-21T05:40:14;1.30;;;0.60;;
68025;SDS011;54819;48.030;14.710;2022-11-21T05:42:41;1.90;;;0.50;;
68025;SDS011;54819;48.030;14.710;2022-11-21T05:45:27;1.20;;;0.50;;
68025;SDS011;54819;48.030;14.710;2022-11-21T05:47:54;2.60;;;0.60;;
68025;SDS011;54819;48.030;14.710;2022-11-21T05:50:21;1.10;;;0.60;;
68025;SDS011;54819;48.030;14.710;2022-11-21T05:52:48;3.70;;;0.50;;
68025;SDS011;54819;48.030;14.710;2022-11-21T05:55:14;1.60;;;0.70;;
68025;SDS011;54819;48.030;14.710;2022-11-21T05:57:41;0.70;;;0.50;;
68025;SDS011;54819;48.030;14.710;2022-11-21T06:00:09;2.30;;;0.70;;
68025;SDS011;54819;48.030;14.710;2022-11-21T06:02:36;0.40;;;0.40;;
68025;SDS011;54819;48.030;14.710;2022-11-21T06:05:22;2.30;;;0.50;;
68025;SDS011;54819;48.030;14.710;2022-11-21T06:07:49;2.20;;;1.00;;
68025;SDS011;54819;48.030;14.710;2022-11-21T06:10:16;1.40;;;0.50;;
68025;SDS011;54819;48.030;14.710;2022-11-21T06:12:43;2.20;;;0.70;;
68025;SDS011;54819;48.030;14.710;2022-11-21T06:15:10;1.30;;;0.60;;
68025;SDS011;54819;48.030;14.710;2022-11-21T06:17:37;0.90;;;0.50;;
68025;SDS011;54819;48.030;14.710;2022-11-21T06:20:04;1.30;;;0.50;;
68025;SDS011;54819;48.030;14.710;2022-11-21T06:22:31;1.40;;;0.60;;
68025;SDS011;54819;48.030;14.710;2022-11-21T06:24:58;4.30;;;0.50;;
68025;SDS011;54819;48.030;14.710;2022-11-21T06:27:25;1.40;;;0.50;;
68025;SDS011;54819;48.030;14.710;2022-11-21T06:29:51;3.20;;;0.80;;
68025;SDS011;54819;48.030;14.710;2022-11-21T06:32:18;5.00;;;0.90;;
68025;SDS011;54819;48.030;14.710;2022-11-21T06:34:45;2.40;;;0.80;;
68025;SDS011;54819;48.030;14.710;2022-11-21T06:37:12;1.30;;;0.80;;
68025;SDS011;54819;48.030;14.710;2022-11-21T06:39:39;1.80;;;0.70;;
68025;SDS011;54819;48.030;14.710;2022-11-21T06:42:06;3.40;;;0.70;;
68025;SDS011;54819;48.030;14.710;2022-11-21T06:44:33;1.80;;;0.70;;
68025;SDS011;54819;48.030;14.710;2022-11-21T06:47:00;1.30;;;0.50;;
68025;SDS011;54819;48.030;14.710;2022-11-21T06:49:26;1.70;;;0.60;;
68025;SDS011;54819;48.030;14.710;2022-11-21T06:51:53;1.10;;;0.60;;
68025;SDS011;54819;48.030;14.710;2022-11-21T06:54:20;1.30;;;0.50;;
68025;SDS011;54819;48.030;14.710;2022-11-21T06:56:51;2.40;;;0.70;;
68025;SDS011;54819;48.030;14.710;2022-11-21T06:59:19;2.80;;;0.60;;
68025;SDS011;54819;48.030;14.710;2022-11-21T07:01:45;1.20;;;0.50;;
68025;SDS011;54819;48.030;14.710;2022-11-21T07:04:12;2.70;;;0.80;;
68025;SDS011;54819;48.030;14.710;2022-11-21T07:06:39;1.90;;;0.80;;
68025;SDS011;54819;48.030;14.710;2022-11-21T07:09:06;2.70;;;0.70;;
68025;SDS011;54819;48.030;14.710;2022-11-21T07:11:53;2.90;;;0.50;;
68025;SDS011;54819;48.030;14.710;2022-11-21T07:14:20;3.30;;;0.70;;
68025;SDS011;54819;48.030;14.710;2022-11-21T07:16:47;3.50;;;0.60;;
68025;SDS011;54819;48.030;14.710;2022-11-21T07:19:14;1.70;;;0.50;;
68025;SDS011;54819;48.030;14.710;2022-11-21T07:21:41;5.00;;;0.70;;
68025;SDS011;54819;48.030;14.710;2022-11-21T07:24:08;4.20;;;0.80;;
68025;SDS011;54819;48.030;14.710;2022-11-21T07:26:36;6.10;;;0.80;;
68025;SDS011;54819;48.030;14.710;2022-11-21T07:29:03;3.50;;;0.80;;
68025;SDS011;54819;48.030;14.710;2022-11-21T07:31:30;3.30;;;0.90;;
68025;SDS011;54819;48.030;14.710;2022-11-21T07:33:56;2.20;;;0.80;;
68025;SDS011;54819;48.030;14.710;2022-11-21T07:36:23;2.50;;;0.70;;
68025;SDS011;54819;48.030;14.710;2022-11-21T07:38:50;3.50;;;0.80;;
68025;SDS011;54819;48.030;14.710;2022-11-21T07:41:17;3.40;;;0.90;;
68025;SDS011;54819;48.030;14.710;2022-11-21T07:43:44;2.10;;;0.70;;
68025;SDS011;54819;48.030;14.710;2022-11-21T07:46:11;3.00;;;0.90;;
68025;SDS011;54819;48.030;14.710;2022-11-21T07:48:37;4.00;;;0.90;;
68025;SDS011;54819;48.030;14.710;2022-11-21T07:51:04;3.30;;;0.80;;
68025;SDS011;54819;48.030;14.710;2022-11-21T07:53:32;2.10;;;0.80;;
68025;SDS011;54819;48.030;14.710;2022-11-21T07:55:59;2.90;;;0.90;;
68025;SDS011;54819;48.030;14.710;2022-11-21T07:58:26;2.60;;;0.90;;
68025;SDS011;54819;48.030;14.710;2022-11-21T08:00:53;4.80;;;0.70;;
68025;SDS011;54819;48.030;14.710;2022-11-21T08:03:20;1.90;;;0.80;;
68025;SDS011;54819;48.030;14.710;2022-11-21T08:05:48;2.50;;;0.80;;
68025;SDS011;54819;48.030;14.710;2022-11-21T08:08:15;2.70;;;1.00;;
68025;SDS011;54819;48.030;14.710;2022-11-21T08:10:43;3.20;;;1.00;;
68025;SDS011;54819;48.030;14.710;2022-11-21T08:13:13;2.60;;;1.10;;
68025;SDS011;54819;48.030;14.710;2022-11-21T08:15:41;2.90;;;1.10;;
68025;SDS011;54819;48.030;14.710;2022-11-21T08:18:09;2.70;;;0.90;;
68025;SDS011;54819;48.030;14.710;2022-11-21T08:20:38;2.10;;;0.80;;
68025;SDS011;54819;48.030;14.710;2022-11-21T08:23:07;5.60;;;1.20;;
68025;SDS011;54819;48.030;14.710;2022-11-21T08:25:37;2.60;;;1.20;;
68025;SDS011;54819;48.030;14.710;2022-11-21T08:28:06;4.70;;;1.50;;
68025;SDS011;54819;48.030;14.710;2022-11-21T08:30:35;4.30;;;1.40;;
68025;SDS011;54819;48.030;14.710;2022-11-21T08:33:04;3.40;;;1.20;;
68025;SDS011;54819;48.030;14.710;2022-11-21T08:37:59;2.10;;;0.90;;
68025;SDS011;54819;48.030;14.710;2022-11-21T08:40:28;3.60;;;1.00;;
68025;SDS011;54819;48.030;14.710;2022-11-21T08:42:57;2.00;;;0.90;;
68025;SDS011;54819;48.030;14.710;2022-11-21T08:45:29;4.00;;;1.00;;
68025;SDS011;54819;48.030;14.710;2022-11-21T08:47:57;2.80;;;0.90;;
68025;SDS011;54819;48.030;14.710;2022-11-21T08:50:24;2.50;;;0.80;;
68025;SDS011;54819;48.030;14.710;2022-11-21T08:52:51;4.90;;;1.00;;
68025;SDS011;54819;48.030;14.710;2022-11-21T08:55:19;3.10;;;1.00;;
68025;SDS011;54819;48.030;14.710;2022-11-21T08:57:47;3.80;;;0.90;;
68025;SDS011;54819;48.030;14.710;2022-11-21T09:00:14;2.60;;;0.70;;
68025;SDS011;54819;48.030;14.710;2022-11-21T09:02:41;1.40;;;0.60;;
68025;SDS011;54819;48.030;14.710;2022-11-21T09:05:08;4.10;;;0.90;;
68025;SDS011;54819;48.030;14.710;2022-11-21T09:07:36;1.20;;;0.70;;
68025;SDS011;54819;48.030;14.710;2022-11-21T09:10:03;2.30;;;0.70;;
68025;SDS011;54819;48.030;14.710;2022-11-21T09:12:30;2.60;;;0.70;;
68025;SDS011;54819;48.030;14.710;2022-11-21T09:14:57;3.00;;;0.80;;
68025;SDS011;54819;48.030;14.710;2022-11-21T09:17:42;2.20;;;0.80;;
68025;SDS011;54819;48.030;14.710;2022-11-21T09:20:31;1.70;;;0.80;;
68025;SDS011;54819;48.030;14.710;2022-11-21T09:23:13;4.70;;;1.00;;
68025;SDS011;54819;48.030;14.710;2022-11-21T09:25:42;2.70;;;0.80;;
68025;SDS011;54819;48.030;14.710;2022-11-21T09:28:11;2.30;;;0.90;;
68025;SDS011;54819;48.030;14.710;2022-11-21T09:30:39;1.70;;;0.70;;
68025;SDS011;54819;48.030;14.710;2022-11-21T09:33:12;2.60;;;0.80;;
68025;SDS011;54819;48.030;14.710;2022-11-21T09:35:42;2.80;;;0.80;;
68025;SDS011;54819;48.030;14.710;2022-11-21T09:38:11;3.70;;;1.00;;
68025;SDS011;54819;48.030;14.710;2022-11-21T09:40:42;1.40;;;0.60;;
68025;SDS011;54819;48.030;14.710;2022-11-21T09:43:42;1.50;;;0.70;;
68025;SDS011;54819;48.030;14.710;2022-11-21T09:46:26;1.20;;;0.70;;
68025;SDS011;54819;48.030;14.710;2022-11-21T09:49:05;2.10;;;0.90;;
68025;SDS011;54819;48.030;14.710;2022-11-21T09:51:36;2.70;;;0.90;;
68025;SDS011;54819;48.030;14.710;2022-11-21T09:56:38;1.70;;;0.60;;
68025;SDS011;54819;48.030;14.710;2022-11-21T09:59:33;2.70;;;0.80;;
68025;SDS011;54819;48.030;14.710;2022-11-21T10:02:13;2.00;;;0.80;;
68025;SDS011;54819;48.030;14.710;2022-11-21T10:04:44;1.50;;;0.80;;
68025;SDS011;54819;48.030;14.710;2022-11-21T10:07:20;2.50;;;1.00;;
68025;SDS011;54819;48.030;14.710;2022-11-21T10:10:03;2.10;;;0.80;;
68025;SDS011;54819;48.030;14.710;2022-11-21T10:16:08;3.30;;;1.40;;
68025;SDS011;54819;48.030;14.710;2022-11-21T10:19:00;2.30;;;1.00;;
68025;SDS011;54819;48.030;14.710;2022-11-21T10:25:13;1.90;;;0.90;;
68025;SDS011;54819;48.030;14.710;2022-11-21T10:28:01;2.30;;;1.00;;
68025;SDS011;54819;48.030;14.710;2022-11-21T10:30:49;2.20;;;0.90;;
68025;SDS011;54819;48.030;14.710;2022-11-21T10:33:30;3.20;;;1.20;;
68025;SDS011;54819;48.030;14.710;2022-11-21T10:36:08;4.20;;;1.10;;
68025;SDS011;54819;48.030;14.710;2022-11-21T10:38:40;1.30;;;0.70;;
68025;SDS011;54819;48.030;14.710;2022-11-21T10:44:04;2.00;;;0.80;;
68025;SDS011;54819;48.030;14.710;2022-11-21T10:46:59;2.00;;;0.90;;
68025;SDS011;54819;48.030;14.710;2022-11-21T10:49:32;2.30;;;0.60;;
68025;SDS011;54819;48.030;14.710;2022-11-21T10:52:08;1.40;;;0.60;;
68025;SDS011;54819;48.030;14.710;2022-11-21T10:57:50;2.30;;;0.60;;
68025;SDS011;54819;48.030;14.710;2022-11-21T11:00:24;1.90;;;0.60;;
68025;SDS011;54819;48.030;14.710;2022-11-21T11:05:26;1.40;;;0.50;;
68025;SDS011;54819;48.030;14.710;2022-11-21T11:08:04;1.40;;;0.60;;
68025;SDS011;54819;48.030;14.710;2022-11-21T11:10:39;1.30;;;0.60;;
68025;SDS011;54819;48.030;14.710;2022-11-21T11:13:16;1.20;;;0.60;;
68025;SDS011;54819;48.030;14.710;2022-11-21T11:16:15;3.80;;;0.90;;
68025;SDS011;54819;48.030;14.710;2022-11-21T11:18:47;3.40;;;0.70;;
68025;SDS011;54819;48.030;14.710;2022-11-21T11:21:42;0.90;;;0.40;;
68025;SDS011;54819;48.030;14.710;2022-11-21T11:29:25;1.50;;;0.40;;
68025;SDS011;54819;48.030;14.710;2022-11-21T11:32:00;0.80;;;0.50;;
68025;SDS011;54819;48.030;14.710;2022-11-21T11:37:19;3.10;;;1.00;;
68025;SDS011;54819;48.030;14.710;2022-11-21T11:40:27;2.70;;;0.80;;
68025;SDS011;54819;48.030;14.710;2022-11-21T11:49:46;2.60;;;0.70;;
68025;SDS011;54819;48.030;14.710;2022-11-21T11:52:56;4.70;;;0.90;;
68025;SDS011;54819;48.030;14.710;2022-11-21T11:58:32;2.20;;;0.70;;
68025;SDS011;54819;48.030;14.710;2022-11-21T12:04:03;1.60;;;0.60;;
68025;SDS011;54819;48.030;14.710;2022-11-21T12:06:54;1.20;;;0.70;;
68025;SDS011;54819;48.030;14.710;2022-11-21T12:10:44;1.90;;;0.40;;
68025;SDS011;54819;48.030;14.710;2022-11-21T12:13:13;1.70;;;0.50;;
68025;SDS011;54819;48.030;14.710;2022-11-21T12:15:46;1.10;;;0.50;;
68025;SDS011;54819;48.030;14.710;2022-11-21T12:23:54;1.80;;;0.40;;
68025;SDS011;54819;48.030;14.710;2022-11-21T12:43:46;1.40;;;0.60;;
68025;SDS011;54819;48.030;14.710;2022-11-21T12:47:07;1.60;;;0.50;;
68025;SDS011;54819;48.030;14.710;2022-11-21T12:52:59;1.30;;;0.60;;
68025;SDS011;54819;48.030;14.710;2022-11-21T12:56:00;1.50;;;0.50;;
68025;SDS011;54819;48.030;14.710;2022-11-21T12:58:38;1.60;;;0.50;;
68025;SDS011;54819;48.030;14.710;2022-11-21T13:01:43;0.80;;;0.50;;
68025;SDS011;54819;48.030;14.710;2022-11-21T13:04:20;1.70;;;0.50;;
68025;SDS011;54819;48.030;14.710;2022-11-21T13:06:51;2.70;;;0.70;;
68025;SDS011;54819;48.030;14.710;2022-11-21T13:09:22;1.30;;;0.60;;
68025;SDS011;54819;48.030;14.710;2022-11-21T13:11:59;2.50;;;1.10;;
68025;SDS011;54819;48.030;14.710;2022-11-21T13:20:05;2.90;;;0.70;;
68025;SDS011;54819;48.030;14.710;2022-11-21T13:23:00;3.00;;;0.80;;
68025;SDS011;54819;48.030;14.710;2022-11-21T13:30:52;1.80;;;0.70;;
68025;SDS011;54819;48.030;14.710;2022-11-21T13:36:12;4.70;;;0.80;;
68025;SDS011;54819;48.030;14.710;2022-11-21T13:49:58;1.30;;;0.50;;
68025;SDS011;54819;48.030;14.710;2022-11-21T13:53:13;0.70;;;0.40;;
68025;SDS011;54819;48.030;14.710;2022-11-21T13:56:08;2.90;;;0.90;;
68025;SDS011;54819;48.030;14.710;2022-11-21T14:08:18;1.80;;;0.60;;
68025;SDS011;54819;48.030;14.710;2022-11-21T14:10:49;4.70;;;0.80;;
68025;SDS011;54819;48.030;14.710;2022-11-21T14:13:26;2.70;;;0.90;;
68025;SDS011;54819;48.030;14.710;2022-11-21T14:18:34;2.90;;;0.70;;
68025;SDS011;54819;48.030;14.710;2022-11-21T14:21:04;2.40;;;0.90;;
68025;SDS011;54819;48.030;14.710;2022-11-21T14:23:34;1.60;;;0.60;;
68025;SDS011;54819;48.030;14.710;2022-11-21T14:26:13;2.60;;;0.80;;
68025;SDS011;54819;48.030;14.710;2022-11-21T14:28:46;1.90;;;0.50;;
68025;SDS011;54819;48.030;14.710;2022-11-21T14:33:41;1.20;;;0.60;;
68025;SDS011;54819;48.030;14.710;2022-11-21T14:36:16;4.80;;;0.80;;
68025;SDS011;54819;48.030;14.710;2022-11-21T14:38:57;3.70;;;0.80;;
68025;SDS011;54819;48.030;14.710;2022-11-21T14:41:50;1.80;;;0.70;;
68025;SDS011;54819;48.030;14.710;2022-11-21T14:44:21;1.90;;;0.90;;
68025;SDS011;54819;48.030;14.710;2022-11-21T14:46:50;3.10;;;0.80;;
68025;SDS011;54819;48.030;14.710;2022-11-21T14:49:28;2.90;;;0.90;;
68025;SDS011;54819;48.030;14.710;2022-11-21T14:52:23;4.00;;;0.90;;
68025;SDS011;54819;48.030;14.710;2022-11-21T14:55:04;2.90;;;0.70;;
68025;SDS011;54819;48.030;14.710;2022-11-21T14:57:53;2.80;;;0.80;;
68025;SDS011;54819;48.030;14.710;2022-11-21T15:00:24;7.90;;;1.10;;
68025;SDS011;54819;48.030;14.710;2022-11-21T15:03:21;3.80;;;0.70;;
68025;SDS011;54819;48.030;14.710;2022-11-21T15:05:57;4.40;;;1.00;;
68025;SDS011;54819;48.030;14.710;2022-11-21T15:08:35;1.70;;;0.60;;
68025;SDS011;54819;48.030;14.710;2022-11-21T15:11:37;7.20;;;2.60;;
68025;SDS011;54819;48.030;14.710;2022-11-21T15:14:18;5.00;;;1.90;;
68025;SDS011;54819;48.030;14.710;2022-11-21T15:16:52;12.40;;;6.10;;
68025;SDS011;54819;48.030;14.710;2022-11-21T15:19:26;14.50;;;6.90;;
68025;SDS011;54819;48.030;14.710;2022-11-21T15:21:56;27.20;;;9.50;;
68025;SDS011;54819;48.030;14.710;2022-11-21T15:27:27;21.00;;;7.50;;
68025;SDS011;54819;48.030;14.710;2022-11-21T15:30:32;19.40;;;6.90;;
68025;SDS011;54819;48.030;14.710;2022-11-21T15:43:42;17.60;;;5.70;;
68025;SDS011;54819;48.030;14.710;2022-11-21T15:48:57;39.90;;;10.30;;
68025;SDS011;54819;48.030;14.710;2022-11-21T15:51:51;37.20;;;9.40;;
68025;SDS011;54819;48.030;14.710;2022-11-21T15:54:35;25.90;;;7.20;;
68025;SDS011;54819;48.030;14.710;2022-11-21T15:57:02;6.20;;;2.30;;
68025;SDS011;54819;48.030;14.710;2022-11-21T15:59:29;46.60;;;26.40;;
68025;SDS011;54819;48.030;14.710;2022-11-21T16:01:57;19.00;;;13.80;;
68025;SDS011;54819;48.030;14.710;2022-11-21T16:04:24;7.10;;;3.00;;
68025;SDS011;54819;48.030;14.710;2022-11-21T16:06:54;7.60;;;3.80;;
68025;SDS011;54819;48.030;14.710;2022-11-21T16:09:21;9.30;;;5.30;;
68025;SDS011;54819;48.030;14.710;2022-11-21T16:11:48;10.70;;;5.10;;
68025;SDS011;54819;48.030;14.710;2022-11-21T16:14:15;15.90;;;4.90;;
68025;SDS011;54819;48.030;14.710;2022-11-21T16:16:45;8.30;;;3.80;;
68025;SDS011;54819;48.030;14.710;2022-11-21T16:19:14;8.70;;;4.00;;
68025;SDS011;54819;48.030;14.710;2022-11-21T16:24:08;11.00;;;5.00;;
68025;SDS011;54819;48.030;14.710;2022-11-21T16:26:35;8.50;;;3.10;;
68025;SDS011;54819;48.030;14.710;2022-11-21T16:29:02;7.30;;;3.00;;
68025;SDS011;54819;48.030;14.710;2022-11-21T16:31:32;11.30;;;4.60;;
68025;SDS011;54819;48.030;14.710;2022-11-21T16:33:59;12.90;;;5.50;;
68025;SDS011;54819;48.030;14.710;2022-11-21T16:36:30;14.20;;;7.30;;
68025;SDS011;54819;48.030;14.710;2022-11-21T16:38:58;15.50;;;6.30;;
68025;SDS011;54819;48.030;14.710;2022-11-21T16:41:35;11.90;;;6.10;;
68025;SDS011;54819;48.030;14.710;2022-11-21T16:44:02;5.60;;;3.60;;
68025;SDS011;54819;48.030;14.710;2022-11-21T16:46:29;6.90;;;3.70;;
68025;SDS011;54819;48.030;14.710;2022-11-21T16:49:01;9.10;;;2.80;;
68025;SDS011;54819;48.030;14.710;2022-11-21T16:51:29;7.90;;;3.30;;
68025;SDS011;54819;48.030;14.710;2022-11-21T16:53:57;7.80;;;3.60;;
68025;SDS011;54819;48.030;14.710;2022-11-21T16:56:31;28.10;;;9.30;;
68025;SDS011;54819;48.030;14.710;2022-11-21T16:58:58;15.80;;;6.00;;
68025;SDS011;54819;48.030;14.710;2022-11-21T17:01:25;8.80;;;3.20;;
68025;SDS011;54819;48.030;14.710;2022-11-21T17:03:53;5.50;;;2.50;;
68025;SDS011;54819;48.030;14.710;2022-11-21T17:06:26;17.80;;;7.60;;
68025;SDS011;54819;48.030;14.710;2022-11-21T17:08:55;5.80;;;2.30;;
68025;SDS011;54819;48.030;14.710;2022-11-21T17:11:24;6.30;;;2.70;;
68025;SDS011;54819;48.030;14.710;2022-11-21T17:13:57;4.00;;;2.30;;
68025;SDS011;54819;48.030;14.710;2022-11-21T17:16:26;6.50;;;2.80;;
68025;SDS011;54819;48.030;14.710;2022-11-21T17:18:55;3.00;;;1.50;;
68025;SDS011;54819;48.030;14.710;2022-11-21T17:21:25;6.30;;;2.10;;